sensor_id;sensor_type;location;lat;lon;timestamp;temperature;humidity
23411;DHT22;11878;51.774;7.220;2023-05-29T00:01:02;13.60;99.90
23411;DHT22;11878;51.774;7.220;2023-05-29T00:04:03;13.50;99.90
23411;DHT22;11878;51.774;7.220;2023-05-29T00:07:06;13.30;99.90
23411;DHT22;11878;51.774;7.220;2023-05-29T00:13:45;13.40;99.90
23411;DHT22;11878;51.774;7.220;2023-05-29T00:16:48;13.40;99.90
23411;DHT22;11878;51.774;7.220;2023-05-29T00:19:50;13.20;99.90
23411;DHT22;11878;51.774;7.220;2023-05-29T00:22:52;13.10;99.90
23411;DHT22;11878;51.774;7.220;2023-05-29T00:25:54;12.90;99.90
23411;DHT22;11878;51.774;7.220;2023-05-29T00:28:56;13.00;99.90
23411;DHT22;11878;51.774;7.220;2023-05-29T00:31:58;12.90;99.90
23411;DHT22;11878;51.774;7.220;2023-05-29T00:35:00;12.70;99.90
23411;DHT22;11878;51.774;7.220;2023-05-29T00:38:02;12.90;99.90
23411;DHT22;11878;51.774;7.220;2023-05-29T00:41:04;12.80;99.90
23411;DHT22;11878;51.774;7.220;2023-05-29T00:44:06;12.60;99.90
23411;DHT22;11878;51.774;7.220;2023-05-29T00:47:08;12.50;99.90
23411;DHT22;11878;51.774;7.220;2023-05-29T00:50:11;12.40;99.90
23411;DHT22;11878;51.774;7.220;2023-05-29T00:53:15;12.40;99.90
23411;DHT22;11878;51.774;7.220;2023-05-29T00:56:17;12.50;99.90
23411;DHT22;11878;51.774;7.220;2023-05-29T00:59:20;12.40;99.90
23411;DHT22;11878;51.774;7.220;2023-05-29T01:02:23;12.30;99.90
23411;DHT22;11878;51.774;7.220;2023-05-29T01:05:24;12.30;99.90
23411;DHT22;11878;51.774;7.220;2023-05-29T01:08:26;12.10;99.90
23411;DHT22;11878;51.774;7.220;2023-05-29T01:18:24;12.00;99.90
23411;DHT22;11878;51.774;7.220;2023-05-29T01:28:21;11.80;99.90
23411;DHT22;11878;51.774;7.220;2023-05-29T01:31:25;11.70;99.90
23411;DHT22;11878;51.774;7.220;2023-05-29T01:34:27;11.70;99.90
23411;DHT22;11878;51.774;7.220;2023-05-29T01:37:29;11.80;99.90
23411;DHT22;11878;51.774;7.220;2023-05-29T01:40:31;11.80;99.90
23411;DHT22;11878;51.774;7.220;2023-05-29T01:43:33;11.70;99.90
23411;DHT22;11878;51.774;7.220;2023-05-29T01:46:39;11.80;99.90
23411;DHT22;11878;51.774;7.220;2023-05-29T01:49:42;11.60;99.90
23411;DHT22;11878;51.774;7.220;2023-05-29T01:52:45;11.60;99.90
23411;DHT22;11878;51.774;7.220;2023-05-29T01:55:47;11.70;99.90
23411;DHT22;11878;51.774;7.220;2023-05-29T01:58:50;11.70;99.90
23411;DHT22;11878;51.774;7.220;2023-05-29T02:01:52;11.70;99.90
23411;DHT22;11878;51.774;7.220;2023-05-29T02:04:54;11.70;99.90
23411;DHT22;11878;51.774;7.220;2023-05-29T02:07:56;11.60;99.90
23411;DHT22;11878;51.774;7.220;2023-05-29T02:10:58;11.60;99.90
23411;DHT22;11878;51.774;7.220;2023-05-29T02:14:00;11.40;99.90
23411;DHT22;11878;51.774;7.220;2023-05-29T02:17:05;11.50;99.90
23411;DHT22;11878;51.774;7.220;2023-05-29T02:20:07;11.50;99.90
23411;DHT22;11878;51.774;7.220;2023-05-29T02:23:09;11.50;99.90
23411;DHT22;11878;51.774;7.220;2023-05-29T02:26:12;11.50;99.90
23411;DHT22;11878;51.774;7.220;2023-05-29T02:29:15;11.30;99.90
23411;DHT22;11878;51.774;7.220;2023-05-29T02:32:16;11.30;99.90
23411;DHT22;11878;51.774;7.220;2023-05-29T02:35:18;11.20;99.90
23411;DHT22;11878;51.774;7.220;2023-05-29T02:38:22;11.30;99.90
23411;DHT22;11878;51.774;7.220;2023-05-29T02:41:25;11.40;99.90
23411;DHT22;11878;51.774;7.220;2023-05-29T02:44:27;11.40;99.90
23411;DHT22;11878;51.774;7.220;2023-05-29T02:50:59;11.40;99.90
23411;DHT22;11878;51.774;7.220;2023-05-29T02:54:01;11.30;99.90
23411;DHT22;11878;51.774;7.220;2023-05-29T02:57:03;11.30;99.90
23411;DHT22;11878;51.774;7.220;2023-05-29T03:00:07;11.10;99.90
23411;DHT22;11878;51.774;7.220;2023-05-29T03:03:09;11.10;99.90
23411;DHT22;11878;51.774;7.220;2023-05-29T03:06:13;11.10;99.90
23411;DHT22;11878;51.774;7.220;2023-05-29T03:09:15;11.00;99.90
23411;DHT22;11878;51.774;7.220;2023-05-29T03:12:18;11.10;99.90
23411;DHT22;11878;51.774;7.220;2023-05-29T03:15:21;11.00;99.90
23411;DHT22;11878;51.774;7.220;2023-05-29T03:18:23;10.90;99.90
23411;DHT22;11878;51.774;7.220;2023-05-29T03:21:25;11.00;99.90
23411;DHT22;11878;51.774;7.220;2023-05-29T03:24:26;10.80;99.90
23411;DHT22;11878;51.774;7.220;2023-05-29T03:27:29;11.00;99.90
23411;DHT22;11878;51.774;7.220;2023-05-29T03:30:40;11.00;99.90
23411;DHT22;11878;51.774;7.220;2023-05-29T03:33:43;11.00;99.90
23411;DHT22;11878;51.774;7.220;2023-05-29T03:37:14;10.90;99.90
23411;DHT22;11878;51.774;7.220;2023-05-29T03:40:16;11.10;99.90
23411;DHT22;11878;51.774;7.220;2023-05-29T03:43:18;11.10;99.90
23411;DHT22;11878;51.774;7.220;2023-05-29T03:46:20;11.00;99.90
23411;DHT22;11878;51.774;7.220;2023-05-29T03:49:23;11.00;99.90
23411;DHT22;11878;51.774;7.220;2023-05-29T03:52:25;11.10;99.90
23411;DHT22;11878;51.774;7.220;2023-05-29T03:55:29;11.10;99.90
23411;DHT22;11878;51.774;7.220;2023-05-29T03:58:30;11.20;99.90
23411;DHT22;11878;51.774;7.220;2023-05-29T04:01:33;11.20;99.90
23411;DHT22;11878;51.774;7.220;2023-05-29T04:04:36;11.10;99.90
23411;DHT22;11878;51.774;7.220;2023-05-29T04:07:38;11.10;99.90
23411;DHT22;11878;51.774;7.220;2023-05-29T04:10:40;11.20;99.90
23411;DHT22;11878;51.774;7.220;2023-05-29T04:13:42;11.00;99.90
23411;DHT22;11878;51.774;7.220;2023-05-29T04:16:44;11.10;99.90
23411;DHT22;11878;51.774;7.220;2023-05-29T04:19:47;11.20;99.90
23411;DHT22;11878;51.774;7.220;2023-05-29T04:22:51;11.00;99.90
23411;DHT22;11878;51.774;7.220;2023-05-29T04:25:53;11.00;99.90
23411;DHT22;11878;51.774;7.220;2023-05-29T04:29:00;11.00;99.90
23411;DHT22;11878;51.774;7.220;2023-05-29T04:32:02;11.00;99.90
23411;DHT22;11878;51.774;7.220;2023-05-29T04:35:05;11.00;99.90
23411;DHT22;11878;51.774;7.220;2023-05-29T04:38:10;11.00;99.90
23411;DHT22;11878;51.774;7.220;2023-05-29T04:41:12;11.00;99.90
23411;DHT22;11878;51.774;7.220;2023-05-29T04:44:14;11.10;99.90
23411;DHT22;11878;51.774;7.220;2023-05-29T04:47:22;11.00;99.90
23411;DHT22;11878;51.774;7.220;2023-05-29T04:50:24;11.10;99.90
23411;DHT22;11878;51.774;7.220;2023-05-29T04:53:27;11.20;99.90
23411;DHT22;11878;51.774;7.220;2023-05-29T04:56:29;11.20;99.90
23411;DHT22;11878;51.774;7.220;2023-05-29T04:59:31;11.30;99.90
23411;DHT22;11878;51.774;7.220;2023-05-29T05:06:08;11.30;99.90
23411;DHT22;11878;51.774;7.220;2023-05-29T05:09:12;11.50;99.90
23411;DHT22;11878;51.774;7.220;2023-05-29T05:12:15;11.90;99.90
23411;DHT22;11878;51.774;7.220;2023-05-29T05:15:17;12.70;99.90
23411;DHT22;11878;51.774;7.220;2023-05-29T05:18:22;12.00;99.90
23411;DHT22;11878;51.774;7.220;2023-05-29T05:21:32;11.50;99.90
23411;DHT22;11878;51.774;7.220;2023-05-29T05:24:37;12.40;99.90
23411;DHT22;11878;51.774;7.220;2023-05-29T05:27:40;12.10;99.90
23411;DHT22;11878;51.774;7.220;2023-05-29T05:30:42;12.90;99.90
23411;DHT22;11878;51.774;7.220;2023-05-29T05:33:44;12.50;99.90
23411;DHT22;11878;51.774;7.220;2023-05-29T05:36:46;11.70;99.90
23411;DHT22;11878;51.774;7.220;2023-05-29T05:39:49;11.80;99.90
23411;DHT22;11878;51.774;7.220;2023-05-29T05:42:52;13.00;99.90
23411;DHT22;11878;51.774;7.220;2023-05-29T05:46:03;12.00;99.90
23411;DHT22;11878;51.774;7.220;2023-05-29T05:49:12;11.80;99.90
23411;DHT22;11878;51.774;7.220;2023-05-29T05:52:15;13.40;99.90
23411;DHT22;11878;51.774;7.220;2023-05-29T05:55:18;12.00;99.90
23411;DHT22;11878;51.774;7.220;2023-05-29T05:58:23;11.70;99.90
23411;DHT22;11878;51.774;7.220;2023-05-29T06:01:31;12.50;99.90
23411;DHT22;11878;51.774;7.220;2023-05-29T06:04:35;12.70;99.90
23411;DHT22;11878;51.774;7.220;2023-05-29T06:07:44;12.80;99.90
23411;DHT22;11878;51.774;7.220;2023-05-29T06:10:46;11.70;99.90
23411;DHT22;11878;51.774;7.220;2023-05-29T06:13:48;12.30;99.90
23411;DHT22;11878;51.774;7.220;2023-05-29T06:16:56;12.50;99.90
23411;DHT22;11878;51.774;7.220;2023-05-29T06:20:00;12.50;99.90
23411;DHT22;11878;51.774;7.220;2023-05-29T06:23:02;12.60;99.90
23411;DHT22;11878;51.774;7.220;2023-05-29T06:26:05;12.80;99.90
23411;DHT22;11878;51.774;7.220;2023-05-29T06:29:12;14.10;99.90
23411;DHT22;11878;51.774;7.220;2023-05-29T06:32:18;13.30;99.90
23411;DHT22;11878;51.774;7.220;2023-05-29T06:35:20;12.60;99.90
23411;DHT22;11878;51.774;7.220;2023-05-29T06:38:26;12.50;99.90
23411;DHT22;11878;51.774;7.220;2023-05-29T06:41:28;13.70;99.90
23411;DHT22;11878;51.774;7.220;2023-05-29T06:44:33;13.80;99.90
23411;DHT22;11878;51.774;7.220;2023-05-29T06:47:35;14.20;99.90
23411;DHT22;11878;51.774;7.220;2023-05-29T06:50:38;12.80;99.90
23411;DHT22;11878;51.774;7.220;2023-05-29T06:54:08;13.40;99.90
23411;DHT22;11878;51.774;7.220;2023-05-29T06:57:13;12.90;99.90
23411;DHT22;11878;51.774;7.220;2023-05-29T07:03:52;13.10;99.90
23411;DHT22;11878;51.774;7.220;2023-05-29T07:06:57;13.70;99.90
23411;DHT22;11878;51.774;7.220;2023-05-29T07:09:59;13.30;99.90
23411;DHT22;11878;51.774;7.220;2023-05-29T07:13:02;14.10;99.90
23411;DHT22;11878;51.774;7.220;2023-05-29T07:16:05;13.10;99.90
23411;DHT22;11878;51.774;7.220;2023-05-29T07:19:29;13.40;99.90
23411;DHT22;11878;51.774;7.220;2023-05-29T07:22:34;14.50;99.90
23411;DHT22;11878;51.774;7.220;2023-05-29T07:25:47;13.40;99.90
23411;DHT22;11878;51.774;7.220;2023-05-29T07:28:51;14.10;99.90
23411;DHT22;11878;51.774;7.220;2023-05-29T07:31:55;13.00;99.90
23411;DHT22;11878;51.774;7.220;2023-05-29T07:34:59;14.50;99.90
23411;DHT22;11878;51.774;7.220;2023-05-29T07:38:02;14.10;99.90
23411;DHT22;11878;51.774;7.220;2023-05-29T07:41:03;14.10;99.90
23411;DHT22;11878;51.774;7.220;2023-05-29T07:44:13;13.00;99.90
23411;DHT22;11878;51.774;7.220;2023-05-29T07:47:15;13.60;99.90
23411;DHT22;11878;51.774;7.220;2023-05-29T07:50:22;14.10;99.90
23411;DHT22;11878;51.774;7.220;2023-05-29T07:53:24;14.40;99.90
23411;DHT22;11878;51.774;7.220;2023-05-29T07:56:26;14.60;99.90
23411;DHT22;11878;51.774;7.220;2023-05-29T07:59:29;14.90;99.90
23411;DHT22;11878;51.774;7.220;2023-05-29T08:02:37;15.50;99.90
23411;DHT22;11878;51.774;7.220;2023-05-29T08:05:59;14.10;99.90
23411;DHT22;11878;51.774;7.220;2023-05-29T08:09:05;14.80;99.90
23411;DHT22;11878;51.774;7.220;2023-05-29T08:12:08;14.00;99.90
23411;DHT22;11878;51.774;7.220;2023-05-29T08:15:12;14.10;99.90
23411;DHT22;11878;51.774;7.220;2023-05-29T08:18:14;14.50;99.90
23411;DHT22;11878;51.774;7.220;2023-05-29T08:21:19;16.10;99.90
23411;DHT22;11878;51.774;7.220;2023-05-29T08:24:25;15.80;99.90
23411;DHT22;11878;51.774;7.220;2023-05-29T08:27:34;14.90;99.90
23411;DHT22;11878;51.774;7.220;2023-05-29T08:30:42;14.90;99.90
23411;DHT22;11878;51.774;7.220;2023-05-29T08:33:44;15.50;99.90
23411;DHT22;11878;51.774;7.220;2023-05-29T08:36:48;15.40;99.90
23411;DHT22;11878;51.774;7.220;2023-05-29T08:39:54;15.80;99.90
23411;DHT22;11878;51.774;7.220;2023-05-29T08:43:16;16.10;99.90
23411;DHT22;11878;51.774;7.220;2023-05-29T08:46:19;15.30;99.90
23411;DHT22;11878;51.774;7.220;2023-05-29T08:49:22;15.40;99.90
23411;DHT22;11878;51.774;7.220;2023-05-29T08:52:30;15.20;99.90
23411;DHT22;11878;51.774;7.220;2023-05-29T08:55:34;15.10;99.90
23411;DHT22;11878;51.774;7.220;2023-05-29T08:58:37;16.50;99.90
23411;DHT22;11878;51.774;7.220;2023-05-29T09:01:46;15.70;99.90
23411;DHT22;11878;51.774;7.220;2023-05-29T09:04:51;16.50;99.90
23411;DHT22;11878;51.774;7.220;2023-05-29T09:08:04;15.60;99.90
23411;DHT22;11878;51.774;7.220;2023-05-29T09:11:09;15.70;99.90
23411;DHT22;11878;51.774;7.220;2023-05-29T09:14:40;16.10;99.90
23411;DHT22;11878;51.774;7.220;2023-05-29T09:17:48;16.20;99.90
23411;DHT22;11878;51.774;7.220;2023-05-29T09:20:50;16.00;99.90
23411;DHT22;11878;51.774;7.220;2023-05-29T09:23:56;16.40;99.90
23411;DHT22;11878;51.774;7.220;2023-05-29T09:27:05;16.60;99.90
23411;DHT22;11878;51.774;7.220;2023-05-29T09:30:10;16.50;99.10
23411;DHT22;11878;51.774;7.220;2023-05-29T09:33:20;16.50;99.50
23411;DHT22;11878;51.774;7.220;2023-05-29T09:36:39;16.70;99.90
23411;DHT22;11878;51.774;7.220;2023-05-29T09:39:50;16.60;99.90
23411;DHT22;11878;51.774;7.220;2023-05-29T09:43:14;16.70;99.80
23411;DHT22;11878;51.774;7.220;2023-05-29T09:46:18;16.60;97.10
23411;DHT22;11878;51.774;7.220;2023-05-29T09:49:23;16.60;99.10
23411;DHT22;11878;51.774;7.220;2023-05-29T09:52:26;16.80;97.60
23411;DHT22;11878;51.774;7.220;2023-05-29T09:55:32;17.30;99.50
23411;DHT22;11878;51.774;7.220;2023-05-29T09:58:38;16.90;97.20
23411;DHT22;11878;51.774;7.220;2023-05-29T10:02:02;17.70;98.10
23411;DHT22;11878;51.774;7.220;2023-05-29T10:05:06;18.00;98.90
23411;DHT22;11878;51.774;7.220;2023-05-29T10:08:14;18.00;94.30
23411;DHT22;11878;51.774;7.220;2023-05-29T10:11:20;17.90;94.40
23411;DHT22;11878;51.774;7.220;2023-05-29T10:14:29;18.60;97.10
23411;DHT22;11878;51.774;7.220;2023-05-29T10:17:34;18.50;94.60
23411;DHT22;11878;51.774;7.220;2023-05-29T10:20:38;18.30;97.00
23411;DHT22;11878;51.774;7.220;2023-05-29T10:23:47;18.90;95.40
23411;DHT22;11878;51.774;7.220;2023-05-29T10:26:51;18.60;95.00
23411;DHT22;11878;51.774;7.220;2023-05-29T10:30:06;19.00;93.10
23411;DHT22;11878;51.774;7.220;2023-05-29T10:36:22;19.40;92.70
23411;DHT22;11878;51.774;7.220;2023-05-29T10:39:25;19.50;91.60
23411;DHT22;11878;51.774;7.220;2023-05-29T10:42:48;18.80;92.30
23411;DHT22;11878;51.774;7.220;2023-05-29T10:45:52;18.60;94.70
23411;DHT22;11878;51.774;7.220;2023-05-29T10:48:54;18.50;93.40
23411;DHT22;11878;51.774;7.220;2023-05-29T10:51:58;18.50;93.40
23411;DHT22;11878;51.774;7.220;2023-05-29T10:55:01;18.80;94.20
23411;DHT22;11878;51.774;7.220;2023-05-29T10:58:13;18.90;93.80
23411;DHT22;11878;51.774;7.220;2023-05-29T11:01:15;18.40;92.90
23411;DHT22;11878;51.774;7.220;2023-05-29T11:07:35;19.00;92.60
23411;DHT22;11878;51.774;7.220;2023-05-29T11:13:56;19.10;93.40
23411;DHT22;11878;51.774;7.220;2023-05-29T11:16:58;18.60;92.30
23411;DHT22;11878;51.774;7.220;2023-05-29T11:20:08;18.30;93.00
23411;DHT22;11878;51.774;7.220;2023-05-29T11:23:17;18.10;92.10
23411;DHT22;11878;51.774;7.220;2023-05-29T11:26:22;18.50;93.80
23411;DHT22;11878;51.774;7.220;2023-05-29T11:29:29;18.30;93.30
23411;DHT22;11878;51.774;7.220;2023-05-29T11:32:34;17.90;93.70
23411;DHT22;11878;51.774;7.220;2023-05-29T11:35:38;18.30;92.90
23411;DHT22;11878;51.774;7.220;2023-05-29T11:38:40;18.30;93.10
23411;DHT22;11878;51.774;7.220;2023-05-29T11:41:42;18.60;92.20
23411;DHT22;11878;51.774;7.220;2023-05-29T11:44:44;18.10;93.60
23411;DHT22;11878;51.774;7.220;2023-05-29T11:50:55;18.30;93.80
23411;DHT22;11878;51.774;7.220;2023-05-29T11:53:57;18.80;90.90
23411;DHT22;11878;51.774;7.220;2023-05-29T11:57:01;18.60;92.80
23411;DHT22;11878;51.774;7.220;2023-05-29T12:00:04;18.50;93.20
23411;DHT22;11878;51.774;7.220;2023-05-29T12:03:11;18.40;90.90
23411;DHT22;11878;51.774;7.220;2023-05-29T12:06:13;18.50;92.10
23411;DHT22;11878;51.774;7.220;2023-05-29T12:09:28;18.40;92.40
23411;DHT22;11878;51.774;7.220;2023-05-29T12:12:30;18.30;93.50
23411;DHT22;11878;51.774;7.220;2023-05-29T12:15:32;18.40;93.40
23411;DHT22;11878;51.774;7.220;2023-05-29T12:18:34;18.60;93.40
23411;DHT22;11878;51.774;7.220;2023-05-29T12:21:41;18.20;92.10
23411;DHT22;11878;51.774;7.220;2023-05-29T12:24:47;18.40;92.20
23411;DHT22;11878;51.774;7.220;2023-05-29T12:27:49;18.30;92.30
23411;DHT22;11878;51.774;7.220;2023-05-29T12:30:58;18.40;90.10
23411;DHT22;11878;51.774;7.220;2023-05-29T12:34:08;18.40;92.10
23411;DHT22;11878;51.774;7.220;2023-05-29T12:37:11;18.30;91.60
23411;DHT22;11878;51.774;7.220;2023-05-29T12:40:17;18.90;92.20
23411;DHT22;11878;51.774;7.220;2023-05-29T12:43:20;18.40;90.70
23411;DHT22;11878;51.774;7.220;2023-05-29T12:46:25;19.80;90.40
23411;DHT22;11878;51.774;7.220;2023-05-29T12:49:27;18.40;90.30
23411;DHT22;11878;51.774;7.220;2023-05-29T12:52:31;18.10;91.30
23411;DHT22;11878;51.774;7.220;2023-05-29T12:55:38;18.20;91.50
23411;DHT22;11878;51.774;7.220;2023-05-29T12:58:41;18.90;91.70
23411;DHT22;11878;51.774;7.220;2023-05-29T13:01:43;18.90;91.40
23411;DHT22;11878;51.774;7.220;2023-05-29T13:04:45;18.60;91.60
23411;DHT22;11878;51.774;7.220;2023-05-29T13:07:47;18.60;90.70
23411;DHT22;11878;51.774;7.220;2023-05-29T13:10:50;18.60;90.90
23411;DHT22;11878;51.774;7.220;2023-05-29T13:13:51;19.20;91.60
23411;DHT22;11878;51.774;7.220;2023-05-29T13:16:53;18.70;87.90
23411;DHT22;11878;51.774;7.220;2023-05-29T13:19:55;18.50;90.20
23411;DHT22;11878;51.774;7.220;2023-05-29T13:22:58;19.40;88.90
23411;DHT22;11878;51.774;7.220;2023-05-29T13:25:59;18.60;89.70
23411;DHT22;11878;51.774;7.220;2023-05-29T13:29:01;19.20;90.10
23411;DHT22;11878;51.774;7.220;2023-05-29T13:32:03;19.60;90.90
23411;DHT22;11878;51.774;7.220;2023-05-29T13:35:06;18.60;85.50
23411;DHT22;11878;51.774;7.220;2023-05-29T13:38:08;18.80;90.80
23411;DHT22;11878;51.774;7.220;2023-05-29T13:41:09;18.80;86.40
23411;DHT22;11878;51.774;7.220;2023-05-29T13:44:11;18.60;87.20
23411;DHT22;11878;51.774;7.220;2023-05-29T13:47:13;18.60;88.80
23411;DHT22;11878;51.774;7.220;2023-05-29T13:50:15;18.70;85.00
23411;DHT22;11878;51.774;7.220;2023-05-29T13:53:17;19.50;88.30
23411;DHT22;11878;51.774;7.220;2023-05-29T13:56:20;18.60;88.30
23411;DHT22;11878;51.774;7.220;2023-05-29T13:59:22;19.00;82.70
23411;DHT22;11878;51.774;7.220;2023-05-29T14:02:24;18.70;81.60
23411;DHT22;11878;51.774;7.220;2023-05-29T14:05:27;19.00;82.00
23411;DHT22;11878;51.774;7.220;2023-05-29T14:08:29;18.50;80.10
23411;DHT22;11878;51.774;7.220;2023-05-29T14:11:30;18.50;80.10
23411;DHT22;11878;51.774;7.220;2023-05-29T14:14:36;18.60;80.10
23411;DHT22;11878;51.774;7.220;2023-05-29T14:17:40;18.60;78.40
23411;DHT22;11878;51.774;7.220;2023-05-29T14:20:42;18.90;80.60
23411;DHT22;11878;51.774;7.220;2023-05-29T14:23:44;18.90;82.00
23411;DHT22;11878;51.774;7.220;2023-05-29T14:26:46;18.80;80.20
23411;DHT22;11878;51.774;7.220;2023-05-29T14:29:49;18.60;76.10
23411;DHT22;11878;51.774;7.220;2023-05-29T14:32:51;18.80;74.50
23411;DHT22;11878;51.774;7.220;2023-05-29T14:35:53;18.90;80.90
23411;DHT22;11878;51.774;7.220;2023-05-29T14:38:56;18.90;75.30
23411;DHT22;11878;51.774;7.220;2023-05-29T14:41:57;18.90;78.00
23411;DHT22;11878;51.774;7.220;2023-05-29T14:44:59;18.80;70.00
23411;DHT22;11878;51.774;7.220;2023-05-29T14:48:02;18.90;70.70
23411;DHT22;11878;51.774;7.220;2023-05-29T14:51:04;18.90;71.30
23411;DHT22;11878;51.774;7.220;2023-05-29T14:54:06;18.70;68.50
23411;DHT22;11878;51.774;7.220;2023-05-29T14:57:08;18.70;72.00
23411;DHT22;11878;51.774;7.220;2023-05-29T15:00:10;19.00;68.00
23411;DHT22;11878;51.774;7.220;2023-05-29T15:03:12;18.80;64.90
23411;DHT22;11878;51.774;7.220;2023-05-29T15:06:14;18.60;61.00
23411;DHT22;11878;51.774;7.220;2023-05-29T15:09:16;18.60;63.60
23411;DHT22;11878;51.774;7.220;2023-05-29T15:12:18;18.80;63.40
23411;DHT22;11878;51.774;7.220;2023-05-29T15:15:20;18.80;63.90
23411;DHT22;11878;51.774;7.220;2023-05-29T15:18:33;19.30;59.50
23411;DHT22;11878;51.774;7.220;2023-05-29T15:21:35;18.80;62.20
23411;DHT22;11878;51.774;7.220;2023-05-29T15:24:37;18.90;61.30
23411;DHT22;11878;51.774;7.220;2023-05-29T15:27:39;18.90;60.30
23411;DHT22;11878;51.774;7.220;2023-05-29T15:30:41;18.70;59.90
23411;DHT22;11878;51.774;7.220;2023-05-29T15:33:43;18.80;62.90
23411;DHT22;11878;51.774;7.220;2023-05-29T15:36:45;19.50;63.40
23411;DHT22;11878;51.774;7.220;2023-05-29T15:39:47;19.00;61.40
23411;DHT22;11878;51.774;7.220;2023-05-29T15:42:49;18.90;61.80
23411;DHT22;11878;51.774;7.220;2023-05-29T15:45:52;20.00;65.50
23411;DHT22;11878;51.774;7.220;2023-05-29T15:48:53;19.00;64.70
23411;DHT22;11878;51.774;7.220;2023-05-29T15:51:56;19.30;61.60
23411;DHT22;11878;51.774;7.220;2023-05-29T15:54:58;19.10;61.50
23411;DHT22;11878;51.774;7.220;2023-05-29T15:58:04;19.30;59.30
23411;DHT22;11878;51.774;7.220;2023-05-29T16:01:07;19.10;59.10
23411;DHT22;11878;51.774;7.220;2023-05-29T16:04:09;19.20;60.80
23411;DHT22;11878;51.774;7.220;2023-05-29T16:07:11;19.20;58.40
23411;DHT22;11878;51.774;7.220;2023-05-29T16:10:14;19.10;59.40
23411;DHT22;11878;51.774;7.220;2023-05-29T16:13:17;20.00;61.70
23411;DHT22;11878;51.774;7.220;2023-05-29T16:16:21;19.00;59.70
23411;DHT22;11878;51.774;7.220;2023-05-29T16:19:23;19.10;61.70
23411;DHT22;11878;51.774;7.220;2023-05-29T16:22:25;19.10;65.80
23411;DHT22;11878;51.774;7.220;2023-05-29T16:25:55;19.40;59.90
23411;DHT22;11878;51.774;7.220;2023-05-29T16:29:02;19.30;62.60
23411;DHT22;11878;51.774;7.220;2023-05-29T16:32:04;20.10;62.70
23411;DHT22;11878;51.774;7.220;2023-05-29T16:35:07;21.70;59.40
23411;DHT22;11878;51.774;7.220;2023-05-29T16:38:09;20.60;58.70
23411;DHT22;11878;51.774;7.220;2023-05-29T16:41:14;20.20;61.60
23411;DHT22;11878;51.774;7.220;2023-05-29T16:44:16;19.90;63.40
23411;DHT22;11878;51.774;7.220;2023-05-29T16:47:18;19.60;63.50
23411;DHT22;11878;51.774;7.220;2023-05-29T16:50:20;19.70;64.00
23411;DHT22;11878;51.774;7.220;2023-05-29T16:53:25;19.30;65.50
23411;DHT22;11878;51.774;7.220;2023-05-29T16:56:27;19.70;67.20
23411;DHT22;11878;51.774;7.220;2023-05-29T16:59:30;20.60;67.10
23411;DHT22;11878;51.774;7.220;2023-05-29T17:02:32;20.40;65.80
23411;DHT22;11878;51.774;7.220;2023-05-29T17:05:34;20.10;66.80
23411;DHT22;11878;51.774;7.220;2023-05-29T17:08:37;19.50;67.20
23411;DHT22;11878;51.774;7.220;2023-05-29T17:11:39;19.30;66.20
23411;DHT22;11878;51.774;7.220;2023-05-29T17:14:41;19.60;65.90
23411;DHT22;11878;51.774;7.220;2023-05-29T17:17:43;19.60;66.10
23411;DHT22;11878;51.774;7.220;2023-05-29T17:20:44;19.50;62.00
23411;DHT22;11878;51.774;7.220;2023-05-29T17:23:46;19.80;64.90
23411;DHT22;11878;51.774;7.220;2023-05-29T17:26:51;19.40;62.90
23411;DHT22;11878;51.774;7.220;2023-05-29T17:29:53;19.50;62.20
23411;DHT22;11878;51.774;7.220;2023-05-29T17:32:58;19.80;64.40
23411;DHT22;11878;51.774;7.220;2023-05-29T17:36:12;20.60;59.30
23411;DHT22;11878;51.774;7.220;2023-05-29T17:39:14;19.20;61.50
23411;DHT22;11878;51.774;7.220;2023-05-29T17:42:16;18.80;60.90
23411;DHT22;11878;51.774;7.220;2023-05-29T17:45:21;19.30;66.30
23411;DHT22;11878;51.774;7.220;2023-05-29T17:48:23;18.90;64.80
23411;DHT22;11878;51.774;7.220;2023-05-29T17:51:27;18.50;63.30
23411;DHT22;11878;51.774;7.220;2023-05-29T17:54:32;18.50;63.80
23411;DHT22;11878;51.774;7.220;2023-05-29T17:57:34;18.60;66.90
23411;DHT22;11878;51.774;7.220;2023-05-29T18:00:36;18.30;65.40
23411;DHT22;11878;51.774;7.220;2023-05-29T18:03:39;18.30;62.30
23411;DHT22;11878;51.774;7.220;2023-05-29T18:06:43;18.20;65.60
23411;DHT22;11878;51.774;7.220;2023-05-29T18:09:48;18.00;64.50
23411;DHT22;11878;51.774;7.220;2023-05-29T18:12:53;19.10;64.80
23411;DHT22;11878;51.774;7.220;2023-05-29T18:15:55;17.90;64.40
23411;DHT22;11878;51.774;7.220;2023-05-29T18:19:02;17.10;64.70
23411;DHT22;11878;51.774;7.220;2023-05-29T18:22:09;18.20;65.10
23411;DHT22;11878;51.774;7.220;2023-05-29T18:25:12;17.60;66.60
23411;DHT22;11878;51.774;7.220;2023-05-29T18:28:16;19.10;68.90
23411;DHT22;11878;51.774;7.220;2023-05-29T18:31:18;19.00;69.00
23411;DHT22;11878;51.774;7.220;2023-05-29T18:34:21;17.60;66.80
23411;DHT22;11878;51.774;7.220;2023-05-29T18:37:23;18.50;68.90
23411;DHT22;11878;51.774;7.220;2023-05-29T18:40:27;18.40;70.60
23411;DHT22;11878;51.774;7.220;2023-05-29T18:43:32;19.00;70.70
23411;DHT22;11878;51.774;7.220;2023-05-29T18:46:37;18.50;71.70
23411;DHT22;11878;51.774;7.220;2023-05-29T18:49:40;18.50;70.70
23411;DHT22;11878;51.774;7.220;2023-05-29T18:52:44;18.10;71.40
23411;DHT22;11878;51.774;7.220;2023-05-29T18:55:46;18.50;72.70
23411;DHT22;11878;51.774;7.220;2023-05-29T18:58:51;18.60;73.90
23411;DHT22;11878;51.774;7.220;2023-05-29T19:01:53;17.90;73.20
23411;DHT22;11878;51.774;7.220;2023-05-29T19:04:58;17.00;69.90
23411;DHT22;11878;51.774;7.220;2023-05-29T19:08:02;16.70;69.80
23411;DHT22;11878;51.774;7.220;2023-05-29T19:11:08;16.70;69.90
23411;DHT22;11878;51.774;7.220;2023-05-29T19:14:13;17.60;71.70
23411;DHT22;11878;51.774;7.220;2023-05-29T19:17:17;15.60;68.20
23411;DHT22;11878;51.774;7.220;2023-05-29T19:20:20;16.80;70.40
23411;DHT22;11878;51.774;7.220;2023-05-29T19:23:25;16.40;70.40
23411;DHT22;11878;51.774;7.220;2023-05-29T19:26:30;16.50;70.50
23411;DHT22;11878;51.774;7.220;2023-05-29T19:29:31;16.40;69.80
23411;DHT22;11878;51.774;7.220;2023-05-29T19:32:35;16.40;70.90
23411;DHT22;11878;51.774;7.220;2023-05-29T19:35:37;16.90;73.20
23411;DHT22;11878;51.774;7.220;2023-05-29T19:38:38;16.20;71.80
23411;DHT22;11878;51.774;7.220;2023-05-29T19:41:41;16.00;72.10
23411;DHT22;11878;51.774;7.220;2023-05-29T19:44:44;16.00;73.20
23411;DHT22;11878;51.774;7.220;2023-05-29T19:47:46;16.00;74.30
23411;DHT22;11878;51.774;7.220;2023-05-29T19:50:48;16.00;72.30
23411;DHT22;11878;51.774;7.220;2023-05-29T19:53:53;15.80;77.10
23411;DHT22;11878;51.774;7.220;2023-05-29T19:56:55;15.70;74.20
23411;DHT22;11878;51.774;7.220;2023-05-29T19:59:58;16.50;77.30
23411;DHT22;11878;51.774;7.220;2023-05-29T20:03:01;16.90;77.80